sensor_id;sensor_type;location;lat;lon;timestamp;pressure;altitude;pressure_sealevel;temperature;humidity
62697;BME280;48761;42.680;23.312;2023-03-11T00:00:13;93073.97;;;10.42;97.38
62697;BME280;48761;42.680;23.312;2023-03-11T00:02:39;93079.81;;;10.28;95.66
62697;BME280;48761;42.680;23.312;2023-03-11T00:05:06;93094.31;;;10.34;94.10
62697;BME280;48761;42.680;23.312;2023-03-11T00:07:33;93084.72;;;10.23;92.33
62697;BME280;48761;42.680;23.312;2023-03-11T00:09:59;93040.97;;;10.08;92.65
62697;BME280;48761;42.680;23.312;2023-03-11T00:12:25;93039.53;;;9.86;92.17
62697;BME280;48761;42.680;23.312;2023-03-11T00:14:51;93043.13;;;9.67;92.24
62697;BME280;48761;42.680;23.312;2023-03-11T00:17:17;93062.28;;;9.89;93.27
62697;BME280;48761;42.680;23.312;2023-03-11T00:19:43;93049.44;;;9.84;93.51
62697;BME280;48761;42.680;23.312;2023-03-11T00:22:09;93046.69;;;10.04;93.47
62697;BME280;48761;42.680;23.312;2023-03-11T00:24:34;93005.53;;;9.71;93.10
62697;BME280;48761;42.680;23.312;2023-03-11T00:27:00;93049.06;;;10.07;92.48
62697;BME280;48761;42.680;23.312;2023-03-11T00:29:26;93044.88;;;10.04;92.81
62697;BME280;48761;42.680;23.312;2023-03-11T00:31:52;93047.78;;;10.29;91.96
62697;BME280;48761;42.680;23.312;2023-03-11T00:34:18;93037.00;;;10.49;91.49
62697;BME280;48761;42.680;23.312;2023-03-11T00:36:44;93031.66;;;10.59;89.79
62697;BME280;48761;42.680;23.312;2023-03-11T00:39:10;93018.84;;;10.54;89.63
62697;BME280;48761;42.680;23.312;2023-03-11T00:41:36;93055.16;;;10.91;89.39
62697;BME280;48761;42.680;23.312;2023-03-11T00:44:02;93048.81;;;10.83;88.95
62697;BME280;48761;42.680;23.312;2023-03-11T00:46:27;93011.16;;;10.70;88.99
62697;BME280;48761;42.680;23.312;2023-03-11T00:48:53;93035.69;;;10.82;88.93
62697;BME280;48761;42.680;23.312;2023-03-11T00:51:19;93019.09;;;10.88;88.74
62697;BME280;48761;42.680;23.312;2023-03-11T00:53:45;93013.19;;;10.94;87.92
62697;BME280;48761;42.680;23.312;2023-03-11T00:56:13;92991.31;;;10.82;87.33
62697;BME280;48761;42.680;23.312;2023-03-11T00:58:40;92995.94;;;10.80;87.74
62697;BME280;48761;42.680;23.312;2023-03-11T01:01:14;92996.13;;;10.60;88.15
62697;BME280;48761;42.680;23.312;2023-03-11T01:03:41;92983.75;;;10.32;88.49
62697;BME280;48761;42.680;23.312;2023-03-11T01:06:07;92993.31;;;10.25;88.02
62697;BME280;48761;42.680;23.312;2023-03-11T01:08:34;93000.22;;;10.18;88.61
62697;BME280;48761;42.680;23.312;2023-03-11T01:11:01;92989.13;;;10.04;89.30
62697;BME280;48761;42.680;23.312;2023-03-11T01:13:28;92989.59;;;10.00;90.20
62697;BME280;48761;42.680;23.312;2023-03-11T01:15:54;92992.91;;;10.02;90.89
62697;BME280;48761;42.680;23.312;2023-03-11T01:18:21;92980.41;;;9.75;90.26
62697;BME280;48761;42.680;23.312;2023-03-11T01:20:47;92975.66;;;9.69;91.67
62697;BME280;48761;42.680;23.312;2023-03-11T01:23:13;92938.22;;;9.72;92.06
62697;BME280;48761;42.680;23.312;2023-03-11T01:25:39;92957.59;;;9.83;91.00
62697;BME280;48761;42.680;23.312;2023-03-11T01:28:06;92954.53;;;10.14;90.69
62697;BME280;48761;42.680;23.312;2023-03-11T01:30:32;92944.97;;;10.22;90.51
62697;BME280;48761;42.680;23.312;2023-03-11T01:32:59;92912.63;;;10.18;90.25
62697;BME280;48761;42.680;23.312;2023-03-11T01:35:27;92907.38;;;10.08;90.98
62697;BME280;48761;42.680;23.312;2023-03-11T01:37:53;92907.56;;;9.88;90.63
62697;BME280;48761;42.680;23.312;2023-03-11T01:40:25;92930.28;;;9.72;91.18
62697;BME280;48761;42.680;23.312;2023-03-11T01:42:51;92901.41;;;9.41;91.86
62697;BME280;48761;42.680;23.312;2023-03-11T01:47:52;92923.25;;;9.35;94.24
62697;BME280;48761;42.680;23.312;2023-03-11T01:50:18;92926.75;;;9.25;94.96
62697;BME280;48761;42.680;23.312;2023-03-11T01:52:44;92919.41;;;9.19;94.94
62697;BME280;48761;42.680;23.312;2023-03-11T01:55:11;92933.34;;;9.21;95.80
62697;BME280;48761;42.680;23.312;2023-03-11T01:57:41;92939.41;;;9.03;96.65
62697;BME280;48761;42.680;23.312;2023-03-11T02:00:12;92922.53;;;9.04;97.23
62697;BME280;48761;42.680;23.312;2023-03-11T02:02:45;92939.13;;;9.06;97.33
62697;BME280;48761;42.680;23.312;2023-03-11T02:05:14;92940.16;;;9.24;95.93
62697;BME280;48761;42.680;23.312;2023-03-11T02:07:40;92954.34;;;9.61;95.35
62697;BME280;48761;42.680;23.312;2023-03-11T02:10:06;92955.25;;;9.51;93.84
62697;BME280;48761;42.680;23.312;2023-03-11T02:12:34;92951.91;;;9.49;94.15
62697;BME280;48761;42.680;23.312;2023-03-11T02:15:02;92963.59;;;9.57;94.04
62697;BME280;48761;42.680;23.312;2023-03-11T02:17:30;92944.94;;;9.48;93.98
62697;BME280;48761;42.680;23.312;2023-03-11T02:22:47;92977.69;;;9.85;93.83
62697;BME280;48761;42.680;23.312;2023-03-11T02:25:25;92981.66;;;9.71;92.76
62697;BME280;48761;42.680;23.312;2023-03-11T02:27:54;92980.78;;;9.52;92.84
62697;BME280;48761;42.680;23.312;2023-03-11T02:30:22;92990.97;;;9.57;93.20
62697;BME280;48761;42.680;23.312;2023-03-11T02:32:49;92986.84;;;9.73;93.38
62697;BME280;48761;42.680;23.312;2023-03-11T02:35:16;92976.94;;;9.93;92.48
62697;BME280;48761;42.680;23.312;2023-03-11T02:37:50;92976.28;;;9.81;92.12
62697;BME280;48761;42.680;23.312;2023-03-11T02:42:54;92962.47;;;10.06;90.46
62697;BME280;48761;42.680;23.312;2023-03-11T02:45:24;92977.69;;;10.22;90.07
62697;BME280;48761;42.680;23.312;2023-03-11T02:47:52;92966.09;;;10.05;87.86
62697;BME280;48761;42.680;23.312;2023-03-11T02:50:20;92973.38;;;10.03;84.20
62697;BME280;48761;42.680;23.312;2023-03-11T02:52:48;92987.78;;;10.18;81.01
62697;BME280;48761;42.680;23.312;2023-03-11T02:55:15;92983.91;;;10.31;80.48
62697;BME280;48761;42.680;23.312;2023-03-11T02:57:41;92979.72;;;10.47;80.66
62697;BME280;48761;42.680;23.312;2023-03-11T03:00:08;92979.81;;;10.55;80.41
62697;BME280;48761;42.680;23.312;2023-03-11T03:02:34;92972.47;;;10.49;80.06
62697;BME280;48761;42.680;23.312;2023-03-11T03:05:00;92985.88;;;10.47;79.36
62697;BME280;48761;42.680;23.312;2023-03-11T03:07:26;92980.66;;;10.56;79.05
62697;BME280;48761;42.680;23.312;2023-03-11T03:09:52;92946.59;;;10.32;79.51
62697;BME280;48761;42.680;23.312;2023-03-11T03:12:18;92943.31;;;10.39;78.77
62697;BME280;48761;42.680;23.312;2023-03-11T03:14:44;92978.59;;;10.68;78.56
62697;BME280;48761;42.680;23.312;2023-03-11T03:17:09;92984.84;;;10.58;77.84
62697;BME280;48761;42.680;23.312;2023-03-11T03:19:35;92981.53;;;10.64;77.09
62697;BME280;48761;42.680;23.312;2023-03-11T03:22:01;92968.22;;;10.56;77.40
62697;BME280;48761;42.680;23.312;2023-03-11T03:24:27;92956.75;;;10.56;75.90
62697;BME280;48761;42.680;23.312;2023-03-11T03:26:53;92966.03;;;10.51;75.57
62697;BME280;48761;42.680;23.312;2023-03-11T03:29:19;92985.41;;;10.70;75.91
62697;BME280;48761;42.680;23.312;2023-03-11T03:31:45;92956.66;;;10.65;75.69
62697;BME280;48761;42.680;23.312;2023-03-11T03:34:11;92959.50;;;10.64;74.46
62697;BME280;48761;42.680;23.312;2023-03-11T03:36:37;92987.00;;;10.81;73.64
62697;BME280;48761;42.680;23.312;2023-03-11T03:39:03;92985.31;;;10.80;73.31
62697;BME280;48761;42.680;23.312;2023-03-11T03:41:29;92984.38;;;10.90;73.38
62697;BME280;48761;42.680;23.312;2023-03-11T03:43:55;92973.03;;;10.79;72.96
62697;BME280;48761;42.680;23.312;2023-03-11T03:46:21;92977.13;;;10.92;71.32
62697;BME280;48761;42.680;23.312;2023-03-11T03:48:47;92973.06;;;10.87;71.88
62697;BME280;48761;42.680;23.312;2023-03-11T03:51:14;92954.09;;;10.82;72.54
62697;BME280;48761;42.680;23.312;2023-03-11T03:53:40;92975.06;;;10.85;71.96
62697;BME280;48761;42.680;23.312;2023-03-11T03:56:09;92965.66;;;10.91;70.94
62697;BME280;48761;42.680;23.312;2023-03-11T03:58:36;92969.06;;;10.83;70.85
62697;BME280;48761;42.680;23.312;2023-03-11T04:01:03;92950.41;;;10.75;70.97
62697;BME280;48761;42.680;23.312;2023-03-11T04:03:30;92968.78;;;10.86;71.11
62697;BME280;48761;42.680;23.312;2023-03-11T04:06:20;92947.38;;;10.70;69.52
62697;BME280;48761;42.680;23.312;2023-03-11T04:08:47;92960.16;;;10.93;70.18
62697;BME280;48761;42.680;23.312;2023-03-11T04:11:13;92955.16;;;10.90;69.90
62697;BME280;48761;42.680;23.312;2023-03-11T04:13:39;92930.81;;;10.76;70.18
62697;BME280;48761;42.680;23.312;2023-03-11T04:16:06;92944.47;;;10.81;69.22
62697;BME280;48761;42.680;23.312;2023-03-11T04:18:33;92965.66;;;10.91;68.89
62697;BME280;48761;42.680;23.312;2023-03-11T04:20:59;92971.47;;;10.95;69.61
62697;BME280;48761;42.680;23.312;2023-03-11T04:23:25;92981.28;;;10.94;69.34
62697;BME280;48761;42.680;23.312;2023-03-11T04:25:51;92965.34;;;10.94;68.87
62697;BME280;48761;42.680;23.312;2023-03-11T04:28:17;92977.41;;;10.89;69.12
62697;BME280;48761;42.680;23.312;2023-03-11T04:30:43;92981.06;;;10.87;68.88
62697;BME280;48761;42.680;23.312;2023-03-11T04:33:08;92967.41;;;10.82;68.61
62697;BME280;48761;42.680;23.312;2023-03-11T04:35:37;92982.00;;;10.78;68.94
62697;BME280;48761;42.680;23.312;2023-03-11T04:38:03;92956.66;;;10.65;69.07
62697;BME280;48761;42.680;23.312;2023-03-11T04:40:29;92982.00;;;10.78;68.31
62697;BME280;48761;42.680;23.312;2023-03-11T04:42:55;92972.34;;;10.77;68.81
62697;BME280;48761;42.680;23.312;2023-03-11T04:45:21;92974.38;;;10.83;68.97
62697;BME280;48761;42.680;23.312;2023-03-11T04:47:48;92975.44;;;10.91;68.50
62697;BME280;48761;42.680;23.312;2023-03-11T04:50:14;92985.75;;;10.94;67.68
62697;BME280;48761;42.680;23.312;2023-03-11T04:52:40;92948.38;;;10.69;68.23
62697;BME280;48761;42.680;23.312;2023-03-11T04:55:07;92969.59;;;10.87;68.28
62697;BME280;48761;42.680;23.312;2023-03-11T04:57:33;92982.09;;;10.95;68.44
62697;BME280;48761;42.680;23.312;2023-03-11T04:59:58;92987.56;;;10.93;68.04
62697;BME280;48761;42.680;23.312;2023-03-11T05:02:24;92993.06;;;10.92;67.36
62697;BME280;48761;42.680;23.312;2023-03-11T05:04:50;92980.84;;;10.81;67.05
62697;BME280;48761;42.680;23.312;2023-03-11T05:07:16;92997.69;;;10.90;67.29
62697;BME280;48761;42.680;23.312;2023-03-11T05:09:42;92986.06;;;10.91;67.40
62697;BME280;48761;42.680;23.312;2023-03-11T05:12:11;92999.06;;;10.94;67.38
62697;BME280;48761;42.680;23.312;2023-03-11T05:14:36;93005.72;;;10.98;67.84
62697;BME280;48761;42.680;23.312;2023-03-11T05:17:02;93010.34;;;10.96;67.32
62697;BME280;48761;42.680;23.312;2023-03-11T05:19:28;93007.31;;;10.91;66.84
62697;BME280;48761;42.680;23.312;2023-03-11T05:21:55;93016.81;;;10.93;66.53
62697;BME280;48761;42.680;23.312;2023-03-11T05:24:21;92995.00;;;10.90;66.71
62697;BME280;48761;42.680;23.312;2023-03-11T05:26:47;93009.00;;;10.92;66.21
62697;BME280;48761;42.680;23.312;2023-03-11T05:29:13;93032.97;;;11.00;66.74
62697;BME280;48761;42.680;23.312;2023-03-11T05:31:39;93042.78;;;11.00;66.35
62697;BME280;48761;42.680;23.312;2023-03-11T05:34:05;93039.13;;;11.01;66.46
62697;BME280;48761;42.680;23.312;2023-03-11T05:36:31;93019.16;;;10.96;66.77
62697;BME280;48761;42.680;23.312;2023-03-11T05:38:57;93039.66;;;11.04;66.55
62697;BME280;48761;42.680;23.312;2023-03-11T05:41:23;93037.97;;;11.03;66.71
62697;BME280;48761;42.680;23.312;2023-03-11T05:43:48;93050.50;;;11.11;66.94
62697;BME280;48761;42.680;23.312;2023-03-11T05:46:14;93037.81;;;11.05;67.00
62697;BME280;48761;42.680;23.312;2023-03-11T05:48:40;93040.28;;;10.98;67.18
62697;BME280;48761;42.680;23.312;2023-03-11T05:51:08;93044.28;;;11.02;67.68
62697;BME280;48761;42.680;23.312;2023-03-11T05:53:34;93061.69;;;11.15;67.50
62697;BME280;48761;42.680;23.312;2023-03-11T05:56:00;93035.34;;;10.85;67.66
62697;BME280;48761;42.680;23.312;2023-03-11T05:58:27;93067.59;;;11.08;67.77
62697;BME280;48761;42.680;23.312;2023-03-11T06:00:53;93073.53;;;11.02;69.10
62697;BME280;48761;42.680;23.312;2023-03-11T06:03:20;93083.00;;;11.05;68.54
62697;BME280;48761;42.680;23.312;2023-03-11T06:05:47;93088.19;;;11.06;68.46
62697;BME280;48761;42.680;23.312;2023-03-11T06:08:14;93082.25;;;11.13;68.68
62697;BME280;48761;42.680;23.312;2023-03-11T06:10:41;93060.78;;;10.87;68.90
62697;BME280;48761;42.680;23.312;2023-03-11T06:13:07;93098.75;;;10.98;69.62
62697;BME280;48761;42.680;23.312;2023-03-11T06:15:34;93080.41;;;10.86;69.42
62697;BME280;48761;42.680;23.312;2023-03-11T06:18:01;93095.22;;;10.89;69.98
62697;BME280;48761;42.680;23.312;2023-03-11T06:20:27;93094.59;;;10.77;71.44
62697;BME280;48761;42.680;23.312;2023-03-11T06:22:53;93093.31;;;10.81;71.88
62697;BME280;48761;42.680;23.312;2023-03-11T06:25:19;93071.88;;;10.64;72.28
62697;BME280;48761;42.680;23.312;2023-03-11T06:27:50;93095.75;;;10.56;73.02
62697;BME280;48761;42.680;23.312;2023-03-11T06:30:16;93096.56;;;10.75;73.05
62697;BME280;48761;42.680;23.312;2023-03-11T06:32:44;93087.59;;;10.58;72.91
62697;BME280;48761;42.680;23.312;2023-03-11T06:35:10;93094.81;;;10.65;73.02
62697;BME280;48761;42.680;23.312;2023-03-11T06:37:36;93095.13;;;10.62;73.42
62697;BME280;48761;42.680;23.312;2023-03-11T06:40:04;93102.63;;;10.85;73.17
62697;BME280;48761;42.680;23.312;2023-03-11T06:42:30;93099.84;;;10.69;72.77
62697;BME280;48761;42.680;23.312;2023-03-11T06:44:56;93101.13;;;10.64;72.49
62697;BME280;48761;42.680;23.312;2023-03-11T06:47:22;93098.72;;;10.71;72.68
62697;BME280;48761;42.680;23.312;2023-03-11T06:49:49;93104.16;;;10.70;72.21
62697;BME280;48761;42.680;23.312;2023-03-11T06:52:15;93097.78;;;10.81;72.03
62697;BME280;48761;42.680;23.312;2023-03-11T06:54:41;93108.50;;;10.71;71.42
62697;BME280;48761;42.680;23.312;2023-03-11T06:57:08;93103.56;;;10.76;71.42
62697;BME280;48761;42.680;23.312;2023-03-11T06:59:34;93083.59;;;10.72;70.97
62697;BME280;48761;42.680;23.312;2023-03-11T07:02:01;93091.34;;;10.83;71.19
62697;BME280;48761;42.680;23.312;2023-03-11T07:04:27;93096.03;;;10.90;70.70
62697;BME280;48761;42.680;23.312;2023-03-11T07:06:53;93101.50;;;11.06;71.11
62697;BME280;48761;42.680;23.312;2023-03-11T07:09:19;93099.81;;;11.05;71.55
62697;BME280;48761;42.680;23.312;2023-03-11T07:11:45;93071.66;;;10.94;72.18
62697;BME280;48761;42.680;23.312;2023-03-11T07:14:11;93106.06;;;10.96;71.93
62697;BME280;48761;42.680;23.312;2023-03-11T07:16:38;93083.66;;;10.80;71.88
62697;BME280;48761;42.680;23.312;2023-03-11T07:19:04;93095.78;;;11.19;72.25
62697;BME280;48761;42.680;23.312;2023-03-11T07:21:30;93097.38;;;11.12;71.16
62697;BME280;48761;42.680;23.312;2023-03-11T07:23:59;93104.22;;;11.15;71.00
62697;BME280;48761;42.680;23.312;2023-03-11T07:26:26;93081.28;;;11.14;70.88
62697;BME280;48761;42.680;23.312;2023-03-11T07:28:55;93095.13;;;11.26;70.56
62697;BME280;48761;42.680;23.312;2023-03-11T07:31:24;93074.06;;;11.32;70.10
62697;BME280;48761;42.680;23.312;2023-03-11T07:33:51;93072.72;;;11.28;69.62
62697;BME280;48761;42.680;23.312;2023-03-11T07:36:19;93080.63;;;11.20;69.99
62697;BME280;48761;42.680;23.312;2023-03-11T07:38:45;93063.19;;;11.44;68.87
62697;BME280;48761;42.680;23.312;2023-03-11T07:41:14;93031.22;;;11.36;68.13
62697;BME280;48761;42.680;23.312;2023-03-11T07:43:41;93065.78;;;11.97;66.45
62697;BME280;48761;42.680;23.312;2023-03-11T07:46:11;93034.13;;;11.94;65.55
62697;BME280;48761;42.680;23.312;2023-03-11T07:48:38;93058.28;;;12.44;64.44
62697;BME280;48761;42.680;23.312;2023-03-11T07:51:08;93059.00;;;12.88;63.93
62697;BME280;48761;42.680;23.312;2023-03-11T07:53:35;93038.34;;;12.74;62.00
62697;BME280;48761;42.680;23.312;2023-03-11T07:56:01;93047.31;;;13.15;61.44
62697;BME280;48761;42.680;23.312;2023-03-11T07:58:27;93036.63;;;13.40;60.10
62697;BME280;48761;42.680;23.312;2023-03-11T08:00:54;93049.75;;;13.75;60.51
62697;BME280;48761;42.680;23.312;2023-03-11T08:03:21;93017.91;;;13.65;60.38
62697;BME280;48761;42.680;23.312;2023-03-11T08:05:47;93027.31;;;14.88;58.87
62697;BME280;48761;42.680;23.312;2023-03-11T08:08:13;93022.03;;;15.19;57.13
62697;BME280;48761;42.680;23.312;2023-03-11T08:10:39;92984.31;;;15.29;55.60
62697;BME280;48761;42.680;23.312;2023-03-11T08:13:05;93013.41;;;15.47;53.83
62697;BME280;48761;42.680;23.312;2023-03-11T08:15:31;92999.19;;;15.62;53.94
62697;BME280;48761;42.680;23.312;2023-03-11T08:17:57;92964.25;;;15.85;52.12
62697;BME280;48761;42.680;23.312;2023-03-11T08:20:23;92997.06;;;16.18;51.16
62697;BME280;48761;42.680;23.312;2023-03-11T08:22:49;92998.69;;;16.19;51.49
62697;BME280;48761;42.680;23.312;2023-03-11T08:25:15;92980.00;;;16.25;50.37
62697;BME280;48761;42.680;23.312;2023-03-11T08:27:41;92947.00;;;16.40;49.21
62697;BME280;48761;42.680;23.312;2023-03-11T08:30:07;92973.63;;;16.27;49.29
62697;BME280;48761;42.680;23.312;2023-03-11T08:32:33;92974.66;;;16.25;48.79
62697;BME280;48761;42.680;23.312;2023-03-11T08:34:59;92953.34;;;16.61;48.60
62697;BME280;48761;42.680;23.312;2023-03-11T08:37:25;92950.94;;;16.66;48.37
62697;BME280;48761;42.680;23.312;2023-03-11T08:39:51;92966.91;;;16.16;49.38
62697;BME280;48761;42.680;23.312;2023-03-11T08:42:17;92955.44;;;16.22;49.92
62697;BME280;48761;42.680;23.312;2023-03-11T08:44:43;92973.59;;;16.42;49.33
62697;BME280;48761;42.680;23.312;2023-03-11T08:47:09;92964.47;;;16.58;47.67
62697;BME280;48761;42.680;23.312;2023-03-11T08:49:36;92957.59;;;16.71;47.31
62697;BME280;48761;42.680;23.312;2023-03-11T08:52:03;92959.75;;;16.82;47.33
62697;BME280;48761;42.680;23.312;2023-03-11T08:54:30;92960.56;;;16.83;46.73
62697;BME280;48761;42.680;23.312;2023-03-11T08:56:56;92937.72;;;16.65;46.17
62697;BME280;48761;42.680;23.312;2023-03-11T08:59:22;92961.50;;;16.97;46.95
62697;BME280;48761;42.680;23.312;2023-03-11T09:01:48;92944.44;;;16.76;46.65
62697;BME280;48761;42.680;23.312;2023-03-11T09:04:14;92946.72;;;16.79;46.39
62697;BME280;48761;42.680;23.312;2023-03-11T09:06:43;92947.63;;;16.64;45.97
62697;BME280;48761;42.680;23.312;2023-03-11T09:09:10;92913.16;;;16.90;46.46
62697;BME280;48761;42.680;23.312;2023-03-11T09:11:37;92934.41;;;17.13;45.49
62697;BME280;48761;42.680;23.312;2023-03-11T09:14:04;92928.78;;;17.37;45.14
62697;BME280;48761;42.680;23.312;2023-03-11T09:16:30;92937.53;;;17.46;44.82
62697;BME280;48761;42.680;23.312;2023-03-11T09:18:55;92940.50;;;17.29;46.13
62697;BME280;48761;42.680;23.312;2023-03-11T09:21:22;92930.09;;;17.48;46.04
62697;BME280;48761;42.680;23.312;2023-03-11T09:23:48;92938.00;;;17.56;45.87
62697;BME280;48761;42.680;23.312;2023-03-11T09:26:14;92905.31;;;17.46;45.50
62697;BME280;48761;42.680;23.312;2023-03-11T09:28:41;92940.44;;;17.87;45.12
62697;BME280;48761;42.680;23.312;2023-03-11T09:31:07;92901.16;;;17.86;44.71
62697;BME280;48761;42.680;23.312;2023-03-11T09:33:40;92929.09;;;17.98;44.52
62697;BME280;48761;42.680;23.312;2023-03-11T09:36:11;92932.47;;;18.14;45.48
62697;BME280;48761;42.680;23.312;2023-03-11T09:38:38;92922.63;;;17.79;45.36
62697;BME280;48761;42.680;23.312;2023-03-11T09:52:15;92886.84;;;18.41;42.88
62697;BME280;48761;42.680;23.312;2023-03-11T09:54:50;92909.22;;;18.55;42.87
62697;BME280;48761;42.680;23.312;2023-03-11T09:57:21;92893.47;;;18.39;42.01
62697;BME280;48761;42.680;23.312;2023-03-11T09:59:48;92900.28;;;18.41;40.93
62697;BME280;48761;42.680;23.312;2023-03-11T10:02:17;92911.56;;;18.16;40.36
62697;BME280;48761;42.680;23.312;2023-03-11T10:05:02;92911.88;;;18.35;39.98
62697;BME280;48761;42.680;23.312;2023-03-11T10:07:39;92918.69;;;17.81;40.26
62697;BME280;48761;42.680;23.312;2023-03-11T10:10:11;92924.88;;;17.75;39.65
62697;BME280;48761;42.680;23.312;2023-03-11T10:12:52;92857.22;;;17.16;40.55
62697;BME280;48761;42.680;23.312;2023-03-11T10:26:47;92911.50;;;16.60;42.87
62697;BME280;48761;42.680;23.312;2023-03-11T10:32:04;92937.44;;;16.00;44.58
62697;BME280;48761;42.680;23.312;2023-03-11T10:34:51;92936.63;;;16.00;44.84
62697;BME280;48761;42.680;23.312;2023-03-11T10:37:23;92929.63;;;15.84;44.37
62697;BME280;48761;42.680;23.312;2023-03-11T10:39:50;92915.72;;;15.43;44.63
62697;BME280;48761;42.680;23.312;2023-03-11T10:42:20;92891.56;;;15.06;45.93
62697;BME280;48761;42.680;23.312;2023-03-11T10:44:47;92926.63;;;15.26;45.41
62697;BME280;48761;42.680;23.312;2023-03-11T10:47:23;92920.25;;;15.27;47.36
62697;BME280;48761;42.680;23.312;2023-03-11T10:49:50;92943.75;;;14.86;47.84
62697;BME280;48761;42.680;23.312;2023-03-11T10:52:17;92947.44;;;14.77;51.25
62697;BME280;48761;42.680;23.312;2023-03-11T10:54:46;92926.16;;;14.45;52.86
62697;BME280;48761;42.680;23.312;2023-03-11T10:59:49;92956.41;;;14.45;53.31
62697;BME280;48761;42.680;23.312;2023-03-11T11:02:38;92963.09;;;14.65;52.93
62697;BME280;48761;42.680;23.312;2023-03-11T11:07:45;92927.00;;;14.45;50.88
62697;BME280;48761;42.680;23.312;2023-03-11T11:15:21;92919.03;;;15.45;50.30
62697;BME280;48761;42.680;23.312;2023-03-11T11:17:48;92923.75;;;15.58;49.24
62697;BME280;48761;42.680;23.312;2023-03-11T11:20:17;92925.78;;;15.56;49.25
62697;BME280;48761;42.680;23.312;2023-03-11T11:22:52;92921.34;;;15.48;50.02
62697;BME280;48761;42.680;23.312;2023-03-11T11:25:27;92904.66;;;15.16;49.25
62697;BME280;48761;42.680;23.312;2023-03-11T11:27:59;92910.09;;;15.38;49.05
62697;BME280;48761;42.680;23.312;2023-03-11T11:30:27;92925.88;;;15.32;49.46
62697;BME280;48761;42.680;23.312;2023-03-11T11:32:54;92894.41;;;15.04;48.54
62697;BME280;48761;42.680;23.312;2023-03-11T11:35:22;92907.78;;;15.19;47.83
62697;BME280;48761;42.680;23.312;2023-03-11T11:37:51;92886.50;;;15.11;49.21
62697;BME280;48761;42.680;23.312;2023-03-11T11:40:30;92902.91;;;15.23;48.95
62697;BME280;48761;42.680;23.312;2023-03-11T11:43:11;92867.13;;;15.09;48.70
62697;BME280;48761;42.680;23.312;2023-03-11T11:45:45;92886.75;;;15.01;49.37
62697;BME280;48761;42.680;23.312;2023-03-11T11:48:19;92876.22;;;15.15;49.92
62697;BME280;48761;42.680;23.312;2023-03-11T11:50:51;92879.75;;;15.30;49.08
62697;BME280;48761;42.680;23.312;2023-03-11T11:53:35;92854.75;;;15.23;49.91
62697;BME280;48761;42.680;23.312;2023-03-11T11:56:03;92866.53;;;15.59;48.81
62697;BME280;48761;42.680;23.312;2023-03-11T11:58:30;92846.09;;;15.95;48.11
62697;BME280;48761;42.680;23.312;2023-03-11T12:09:29;92822.78;;;16.33;42.57
62697;BME280;48761;42.680;23.312;2023-03-11T12:12:12;92854.63;;;16.43;41.73
62697;BME280;48761;42.680;23.312;2023-03-11T12:15:03;92840.88;;;16.31;41.91
62697;BME280;48761;42.680;23.312;2023-03-11T12:17:34;92849.94;;;16.52;41.99
62697;BME280;48761;42.680;23.312;2023-03-11T12:20:11;92842.41;;;16.62;41.56
62697;BME280;48761;42.680;23.312;2023-03-11T12:23:10;92841.03;;;16.73;41.75
62697;BME280;48761;42.680;23.312;2023-03-11T12:31:16;92854.25;;;17.03;41.92
62697;BME280;48761;42.680;23.312;2023-03-11T12:33:45;92846.53;;;17.29;49.41
62697;BME280;48761;42.680;23.312;2023-03-11T12:36:39;92835.59;;;17.24;50.27
62697;BME280;48761;42.680;23.312;2023-03-11T12:39:16;92856.94;;;17.39;52.69
62697;BME280;48761;42.680;23.312;2023-03-11T12:41:44;92846.09;;;17.19;45.92
62697;BME280;48761;42.680;23.312;2023-03-11T12:44:30;92855.16;;;17.18;46.17
62697;BME280;48761;42.680;23.312;2023-03-11T12:49:25;92864.53;;;17.00;50.41
62697;BME280;48761;42.680;23.312;2023-03-11T12:54:41;92866.78;;;16.96;49.08
62697;BME280;48761;42.680;23.312;2023-03-11T13:07:47;92886.47;;;16.53;49.29
62697;BME280;48761;42.680;23.312;2023-03-11T13:10:16;92888.75;;;16.34;52.54
62697;BME280;48761;42.680;23.312;2023-03-11T13:18:20;92879.56;;;15.47;50.83
62697;BME280;48761;42.680;23.312;2023-03-11T13:20:53;92928.09;;;15.74;49.28
62697;BME280;48761;42.680;23.312;2023-03-11T13:34:13;92990.47;;;14.20;57.05
62697;BME280;48761;42.680;23.312;2023-03-11T13:45:02;93010.91;;;14.36;65.58
62697;BME280;48761;42.680;23.312;2023-03-11T13:47:32;93012.94;;;14.02;62.23
62697;BME280;48761;42.680;23.312;2023-03-11T13:52:34;93029.63;;;13.30;65.37
62697;BME280;48761;42.680;23.312;2023-03-11T13:55:06;92981.34;;;12.66;68.16
62697;BME280;48761;42.680;23.312;2023-03-11T13:57:35;93018.81;;;13.15;67.41
62697;BME280;48761;42.680;23.312;2023-03-11T14:00:15;92986.66;;;13.08;65.72
62697;BME280;48761;42.680;23.312;2023-03-11T14:02:49;93007.16;;;12.99;68.46
62697;BME280;48761;42.680;23.312;2023-03-11T14:05:19;92962.66;;;13.17;67.20
62697;BME280;48761;42.680;23.312;2023-03-11T14:07:45;92999.56;;;13.53;66.11
62697;BME280;48761;42.680;23.312;2023-03-11T14:10:25;93001.53;;;13.68;66.42
62697;BME280;48761;42.680;23.312;2023-03-11T14:13:04;92983.50;;;13.70;66.06
62697;BME280;48761;42.680;23.312;2023-03-11T14:15:36;92988.91;;;13.62;65.96
62697;BME280;48761;42.680;23.312;2023-03-11T14:18:24;93013.09;;;13.52;67.20
62697;BME280;48761;42.680;23.312;2023-03-11T14:20:50;93001.91;;;13.48;66.58
62697;BME280;48761;42.680;23.312;2023-03-11T14:23:18;92953.47;;;13.11;66.46
62697;BME280;48761;42.680;23.312;2023-03-11T14:25:45;93008.25;;;13.47;66.48
62697;BME280;48761;42.680;23.312;2023-03-11T14:28:19;93019.59;;;13.58;65.82
62697;BME280;48761;42.680;23.312;2023-03-11T14:30:56;92992.13;;;13.32;65.97
62697;BME280;48761;42.680;23.312;2023-03-11T14:33:23;93000.19;;;12.98;67.55
62697;BME280;48761;42.680;23.312;2023-03-11T14:35:57;93021.47;;;13.23;66.62